Time;durP1;ratioP1;P1;durP2;ratioP2;P2;SDS_P1;SDS_P2;PMS_P1;PMS_P2;Temp;Humidity;BMP_temperature;BMP_pressure;BME280_temperature;BME280_humidity;BME280_pressure;Samples;Min_cycle;Max_cycle;Signal;HPM_P1;HPM_P2
2021/07/30 00:02:23;;;;;;;30.42;12.82;;;;;;;23.09;67.36;96716.03;5006635;28;20061;-61
2021/07/30 00:04:50;;;;;;;24.13;12.02;;;;;;;23.09;67.83;96713.22;5005185;28;20603;-61
2021/07/30 00:07:17;;;;;;;18.65;11.60;;;;;;;23.06;68.28;96711.31;5006394;28;20057;-63
2021/07/30 00:09:43;;;;;;;21.38;12.65;;;;;;;22.87;68.95;96703.94;5006439;28;20257;-62
2021/07/30 00:12:10;;;;;;;19.45;11.95;;;;;;;22.31;69.53;96634.13;5004286;28;20062;-63
2021/07/30 00:14:37;;;;;;;20.23;11.70;;;;;;;22.83;69.26;96701.25;5006256;28;20056;-62
2021/07/30 00:17:04;;;;;;;18.70;11.13;;;;;;;22.92;68.81;96709.78;5006054;28;20058;-62
2021/07/30 00:19:31;;;;;;;22.38;11.30;;;;;;;22.66;68.75;96670.81;5004619;28;20145;-62
2021/07/30 00:21:57;;;;;;;20.92;11.38;;;;;;;22.24;68.49;96592.03;5004548;28;20108;-62
2021/07/30 00:24:24;;;;;;;28.88;13.48;;;;;;;22.48;69.21;96642.44;5006267;28;20087;-62
2021/07/30 00:26:51;;;;;;;20.08;11.68;;;;;;;22.89;68.89;96695.81;5005844;28;20065;-61
2021/07/30 00:29:18;;;;;;;21.05;10.50;;;;;;;22.55;69.23;96664.78;5004272;28;20054;-60
2021/07/30 00:31:44;;;;;;;22.85;11.32;;;;;;;22.40;69.49;96642.69;5003998;28;20428;-61
2021/07/30 00:34:11;;;;;;;25.30;11.30;;;;;;;22.85;68.86;96686.66;5003943;28;20061;-60
2021/07/30 00:36:38;;;;;;;20.02;11.13;;;;;;;22.44;68.90;96634.88;5003993;28;20071;-63
2021/07/30 00:39:05;;;;;;;19.27;11.68;;;;;;;22.71;69.07;96681.53;5005483;28;20050;-61
2021/07/30 00:41:41;;;;;;;21.73;11.77;;;;;;;22.54;69.08;96654.75;5003692;28;20153;-61
2021/07/30 00:44:07;;;;;;;22.88;11.90;;;;;;;22.79;69.06;96682.88;5005618;28;20081;-62
2021/07/30 00:46:35;;;;;;;21.60;12.18;;;;;;;22.77;68.67;96682.53;5004090;28;20064;-61
2021/07/30 00:49:02;;;;;;;21.65;12.55;;;;;;;22.65;69.59;96691.84;5003679;28;20538;-63
2021/07/30 00:51:29;;;;;;;20.83;12.85;;;;;;;21.95;72.06;96653.56;5003689;28;20050;-61
2021/07/30 00:53:56;;;;;;;27.20;13.00;;;;;;;22.14;71.36;96648.88;5005378;28;20061;-61
2021/07/30 00:56:23;;;;;;;21.48;12.43;;;;;;;22.50;70.66;96683.06;5005101;28;20046;-62
2021/07/30 00:58:50;;;;;;;21.17;12.57;;;;;;;22.48;70.96;96681.97;5003367;28;20049;-62
2021/07/30 01:01:17;;;;;;;29.17;12.63;;;;;;;22.67;69.08;96684.50;5005179;28;20061;-62
2021/07/30 01:03:44;;;;;;;19.30;12.18;;;;;;;22.71;68.84;96675.91;5003826;28;20531;-63
2021/07/30 01:06:11;;;;;;;25.27;12.05;;;;;;;22.68;68.70;96674.00;5005035;28;20050;-61
2021/07/30 01:08:38;;;;;;;27.40;11.95;;;;;;;22.70;68.47;96677.16;5004964;28;20503;-62
2021/07/30 01:11:05;;;;;;;17.33;10.88;;;;;;;22.41;68.10;96635.78;5004592;28;20053;-62
2021/07/30 01:13:32;;;;;;;24.70;12.07;;;;;;;22.16;67.82;96590.72;5003116;28;20065;-63
2021/07/30 01:15:58;;;;;;;22.58;13.25;;;;;;;22.30;68.42;96643.84;5004716;28;20065;-61
2021/07/30 01:18:25;;;;;;;20.27;12.00;;;;;;;21.86;69.72;96613.94;5003529;28;20477;-62
2021/07/30 01:21:08;;;;;;;21.63;11.73;;;;;;;21.92;69.87;96622.63;5003496;28;20065;-62
2021/07/30 01:23:35;;;;;;;22.60;12.00;;;;;;;21.96;70.10;96640.22;5003033;28;20089;-61
2021/07/30 01:26:02;;;;;;;23.10;11.93;;;;;;;22.20;70.60;96690.16;5004213;28;20049;-62
2021/07/30 01:28:31;;;;;;;21.45;10.95;;;;;;;22.09;71.35;96672.81;5002930;28;20120;-62
2021/07/30 01:30:59;;;;;;;22.20;11.52;;;;;;;22.06;71.52;96673.72;5004492;28;20064;-61
2021/07/30 01:33:26;;;;;;;21.50;12.32;;;;;;;22.09;71.14;96655.88;5004572;28;20054;-61
2021/07/30 01:35:52;;;;;;;24.00;11.77;;;;;;;21.91;71.81;96666.97;5004701;28;20045;-62
2021/07/30 01:38:19;;;;;;;24.80;12.18;;;;;;;21.74;71.10;96623.19;5005076;28;20061;-62
2021/07/30 01:40:46;;;;;;;26.20;12.13;;;;;;;21.87;71.99;96663.50;5003282;28;20065;-61
2021/07/30 01:43:12;;;;;;;22.05;11.23;;;;;;;21.96;71.56;96659.97;5004678;28;20049;-62
2021/07/30 01:45:39;;;;;;;21.38;12.10;;;;;;;22.07;70.80;96663.22;5002544;28;20523;-62
2021/07/30 01:48:06;;;;;;;24.20;13.15;;;;;;;21.99;70.87;96640.09;5004179;28;20144;-62
2021/07/30 01:50:33;;;;;;;17.63;12.23;;;;;;;21.63;71.20;96594.56;5002428;28;20054;-60
2021/07/30 01:53:00;;;;;;;23.48;12.57;;;;;;;21.94;71.62;96649.13;5003694;28;20046;-61
2021/07/30 01:55:26;;;;;;;20.58;11.90;;;;;;;21.42;71.39;96567.09;5002615;28;20050;-61
2021/07/30 01:57:53;;;;;;;26.50;12.40;;;;;;;21.85;71.76;96651.88;5002692;28;20064;-61
2021/07/30 02:00:20;;;;;;;27.77;12.23;;;;;;;21.92;71.44;96657.28;5003154;28;20053;-61
2021/07/30 02:02:47;;;;;;;20.33;12.32;;;;;;;21.97;71.05;96659.50;5002584;28;20053;-61
2021/07/30 02:05:14;;;;;;;22.70;12.05;;;;;;;21.87;71.05;96666.31;5003933;28;20057;-61
2021/07/30 02:07:41;;;;;;;20.58;13.27;;;;;;;21.30;75.00;96658.06;5004034;28;20057;-61
2021/07/30 02:10:08;;;;;;;21.33;13.00;;;;;;;21.44;74.68;96660.44;5003713;28;20618;-62
2021/07/30 02:15:21;;;;;;;25.98;13.35;;;;;;;21.00;75.20;96585.38;5003682;28;20054;-62
2021/07/30 02:17:47;;;;;;;25.50;14.10;;;;;;;21.30;75.05;96623.44;5002121;28;20536;-63
2021/07/30 02:20:14;;;;;;;25.75;12.85;;;;;;;21.36;74.19;96622.44;5003917;28;20097;-61
2021/07/30 02:22:41;;;;;;;26.35;12.82;;;;;;;21.02;72.76;96543.47;5002575;28;20868;-61
2021/07/30 02:25:09;;;;;;;19.80;11.80;;;;;;;21.27;72.58;96566.00;5002035;28;20053;-61
2021/07/30 02:27:36;;;;;;;30.70;12.88;;;;;;;21.80;72.10;96643.97;5002329;28;20049;-61
2021/07/30 02:30:03;;;;;;;24.60;12.63;;;;;;;21.80;72.24;96641.16;5002411;28;20049;-62
2021/07/30 02:32:29;;;;;;;23.42;12.73;;;;;;;21.66;72.03;96647.22;4988573;28;20071;-62
2021/07/30 02:34:57;;;;;;;30.33;13.70;;;;;;;21.33;72.27;96608.47;4993251;28;20046;-62
2021/07/30 02:37:23;;;;;;;22.63;13.50;;;;;;;21.66;72.07;96649.25;5002431;28;20049;-62
2021/07/30 02:39:50;;;;;;;25.38;12.85;;;;;;;21.58;72.40;96647.91;5002099;28;20062;-62
2021/07/30 02:42:17;;;;;;;22.15;12.93;;;;;;;21.55;72.29;96648.81;5002221;28;20065;-62
2021/07/30 02:44:43;;;;;;;30.02;13.65;;;;;;;21.58;71.83;96653.53;5002496;28;20080;-62
2021/07/30 02:47:10;;;;;;;25.90;13.60;;;;;;;21.15;72.23;96597.75;5001828;28;20064;-62
2021/07/30 02:49:37;;;;;;;29.65;12.45;;;;;;;21.08;72.47;96600.81;5002519;28;20064;-61
2021/07/30 02:52:04;;;;;;;25.23;12.45;;;;;;;21.17;72.43;96612.19;5002377;28;20061;-62
2021/07/30 02:54:31;;;;;;;32.75;13.13;;;;;;;21.49;72.22;96645.78;5003668;28;20061;-62
2021/07/30 02:56:58;;;;;;;27.73;12.43;;;;;;;21.48;72.85;96658.28;5002293;28;20413;-62
2021/07/30 02:59:24;;;;;;;22.00;12.35;;;;;;;21.23;72.21;96604.75;5001827;28;20107;-62
2021/07/30 03:01:51;;;;;;;23.55;12.80;;;;;;;21.11;71.95;96591.47;5003328;28;20112;-61
2021/07/30 03:04:18;;;;;;;21.38;12.00;;;;;;;21.07;72.75;96601.25;5005324;28;20069;-61
2021/07/30 03:06:45;;;;;;;24.73;12.88;;;;;;;21.31;72.54;96637.09;5006837;28;20060;-61
2021/07/30 03:09:12;;;;;;;25.40;12.00;;;;;;;21.07;72.69;96604.06;5006070;28;20057;-61
2021/07/30 03:11:38;;;;;;;24.35;11.38;;;;;;;21.50;72.30;96663.50;5007951;28;20050;-59
2021/07/30 03:14:05;;;;;;;35.15;13.20;;;;;;;21.47;72.80;96658.72;5005785;28;20078;-60
2021/07/30 03:16:32;;;;;;;24.75;11.50;;;;;;;21.21;72.55;96606.44;5007070;28;20064;-60
2021/07/30 03:18:59;;;;;;;24.85;12.50;;;;;;;21.49;72.54;96657.06;5005771;28;20164;-59
2021/07/30 03:21:25;;;;;;;25.52;12.48;;;;;;;21.45;72.26;96633.81;5005343;28;20058;-59
2021/07/30 03:23:52;;;;;;;25.48;12.15;;;;;;;21.56;72.24;96659.63;5005401;28;20064;-61
2021/07/30 03:26:19;;;;;;;24.88;12.68;;;;;;;21.55;72.17;96660.88;5005732;28;20058;-59
2021/07/30 03:28:48;;;;;;;28.30;11.75;;;;;;;21.45;72.40;96662.00;5006658;28;20060;-60
2021/07/30 03:31:15;;;;;;;28.42;11.65;;;;;;;21.50;72.40;96653.00;5005459;28;20133;-61
2021/07/30 03:33:41;;;;;;;20.13;12.02;;;;;;;21.49;71.79;96668.34;5007046;28;20053;-60
2021/07/30 03:36:08;;;;;;;27.27;12.60;;;;;;;21.48;71.50;96661.09;5006384;28;20157;-58
2021/07/30 03:38:35;;;;;;;26.35;12.32;;;;;;;21.14;71.34;96657.34;5005564;28;20411;-59
2021/07/30 03:41:03;;;;;;;27.25;11.27;;;;;;;21.50;71.84;96660.69;5006349;28;20062;-63
2021/07/30 03:43:31;;;;;;;22.90;11.38;;;;;;;21.53;71.26;96643.63;5005393;28;20564;-59
2021/07/30 03:45:58;;;;;;;21.52;12.32;;;;;;;21.43;70.82;96627.88;5004858;28;20054;-59
2021/07/30 03:48:25;;;;;;;23.85;11.82;;;;;;;21.74;70.02;96639.31;5005604;28;20143;-58
2021/07/30 03:50:56;;;;;;;29.88;13.30;;;;;;;21.82;70.03;96649.94;5006016;28;20073;-60
2021/07/30 03:53:22;;;;;;;22.85;11.82;;;;;;;21.46;69.35;96562.13;5006886;28;20068;-60
2021/07/30 03:55:49;;;;;;;30.20;13.23;;;;;;;22.03;69.42;96646.44;5004409;28;20050;-60
2021/07/30 03:58:16;;;;;;;24.30;12.32;;;;;;;21.92;68.92;96623.44;5006313;28;20606;-60
2021/07/30 04:00:42;;;;;;;21.42;11.75;;;;;;;22.29;68.73;96664.03;5004770;28;20432;-59
2021/07/30 04:03:09;;;;;;;28.65;12.63;;;;;;;22.40;68.09;96665.25;5004805;28;20093;-60
2021/07/30 04:05:36;;;;;;;28.65;12.90;;;;;;;22.09;67.80;96598.66;5006455;28;20050;-59
2021/07/30 04:08:04;;;;;;;22.63;11.68;;;;;;;22.51;66.74;96639.47;5006661;28;20050;-59
2021/07/30 04:10:32;;;;;;;26.52;11.82;;;;;;;22.78;66.08;96661.53;5004642;28;20065;-59
2021/07/30 04:12:59;;;;;;;25.27;13.32;;;;;;;22.48;68.05;96660.13;5005809;28;20149;-57
2021/07/30 04:15:25;;;;;;;33.28;13.90;;;;;;;22.38;68.97;96659.28;5005123;28;20056;-61
2021/07/30 04:17:53;;;;;;;35.90;14.73;;;;;;;22.19;68.73;96626.50;5006168;28;20065;-57
2021/07/30 04:20:19;;;;;;;27.60;13.45;;;;;;;22.36;67.53;96625.09;5006379;28;20061;-60
2021/07/30 04:22:46;;;;;;;35.28;14.82;;;;;;;22.71;66.70;96667.41;5006006;28;20062;-59
2021/07/30 04:25:13;;;;;;;28.10;12.00;;;;;;;22.67;65.99;96632.88;5004555;28;20516;-61
2021/07/30 04:27:40;;;;;;;40.65;14.80;;;;;;;23.04;66.00;96674.25;5004901;28;20049;-60
2021/07/30 04:30:07;;;;;;;26.67;13.32;;;;;;;23.14;66.02;96667.41;5005401;28;20401;-61
2021/07/30 04:32:34;;;;;;;31.13;13.60;;;;;;;22.74;65.01;96570.47;5004290;28;20085;-61
2021/07/30 04:35:01;;;;;;;24.02;12.88;;;;;;;23.15;64.49;96618.09;5005321;28;20069;-59
2021/07/30 04:37:28;;;;;;;28.80;13.82;;;;;;;23.17;62.99;96605.09;5005505;28;20054;-60
2021/07/30 04:39:55;;;;;;;24.08;12.07;;;;;;;23.51;62.44;96647.38;5004991;28;20440;-59
2021/07/30 04:42:21;;;;;;;32.38;13.00;;;;;;;23.29;62.48;96589.31;5004039;28;20068;-61
2021/07/30 04:44:48;;;;;;;33.42;13.95;;;;;;;23.04;62.85;96578.97;5005632;28;20073;-60
2021/07/30 04:47:15;;;;;;;29.88;13.98;;;;;;;23.60;62.49;96655.13;5003833;28;20089;-61
2021/07/30 04:49:42;;;;;;;31.95;12.85;;;;;;;23.79;61.92;96662.38;4995691;28;20615;-59
2021/07/30 04:52:08;;;;;;;22.35;12.07;;;;;;;23.10;61.98;96556.53;4994464;28;20602;-59
2021/07/30 04:54:35;;;;;;;24.73;11.82;;;;;;;23.87;61.88;96660.84;4990936;28;20061;-60
2021/07/30 04:57:02;;;;;;;25.50;11.32;;;;;;;23.43;61.63;96583.88;5000037;28;20054;-59
2021/07/30 04:59:29;;;;;;;24.80;11.65;;;;;;;24.24;60.78;96676.69;5001692;28;20417;-60
2021/07/30 05:01:56;;;;;;;34.72;11.60;;;;;;;24.06;61.40;96642.69;4991714;28;20057;-60
2021/07/30 05:04:25;;;;;;;19.83;11.65;;;;;;;24.15;61.56;96639.88;5005142;28;20046;-60
2021/07/30 05:06:51;;;;;;;31.25;12.82;;;;;;;24.54;61.31;96667.28;5003582;28;20071;-60
2021/07/30 05:09:18;;;;;;;29.23;11.15;;;;;;;24.52;60.29;96630.16;5004794;28;20521;-63
2021/07/30 05:11:45;;;;;;;24.63;10.65;;;;;;;24.93;60.10;96666.34;5003525;28;20567;-59
2021/07/30 05:14:11;;;;;;;27.10;11.80;;;;;;;24.84;59.52;96635.22;5004613;28;20081;-59
2021/07/30 05:16:38;;;;;;;22.48;11.15;;;;;;;24.81;59.14;96613.50;5003060;28;20050;-61
2021/07/30 05:19:05;;;;;;;23.85;11.55;;;;;;;25.21;58.61;96639.53;5003134;28;20064;-62
2021/07/30 05:21:32;;;;;;;27.95;12.07;;;;;;;25.60;57.40;96674.59;5005071;28;20161;-59
2021/07/30 05:23:59;;;;;;;33.55;12.45;;;;;;;25.78;56.34;96668.06;5005421;28;20049;-60
2021/07/30 05:26:26;;;;;;;29.40;12.23;;;;;;;25.29;57.77;96608.81;5004580;28;20108;-58
2021/07/30 05:28:52;;;;;;;31.55;12.88;;;;;;;25.06;58.90;96658.47;5004890;28;20065;-61
2021/07/30 05:31:19;;;;;;;23.92;12.82;;;;;;;25.17;60.23;96675.78;5004153;28;20524;-62
2021/07/30 05:33:46;;;;;;;26.20;13.55;;;;;;;25.26;60.26;96677.78;5003028;28;20103;-62
2021/07/30 05:36:15;;;;;;;29.33;12.82;;;;;;;25.54;58.96;96670.03;5004422;28;20046;-62
2021/07/30 05:38:43;;;;;;;35.28;13.13;;;;;;;25.93;57.99;96663.25;5004560;28;20494;-60
2021/07/30 05:41:10;;;;;;;28.17;13.07;;;;;;;25.94;56.16;96619.41;5004857;28;20135;-60
2021/07/30 05:43:38;;;;;;;39.55;12.98;;;;;;;26.00;56.16;96589.13;5002873;28;20069;-60
2021/07/30 05:46:07;;;;;;;20.55;12.95;;;;;;;26.52;55.61;96659.44;5004344;28;20053;-60
2021/07/30 05:48:34;;;;;;;35.38;13.43;;;;;;;26.75;54.22;96660.72;5002631;28;20464;-61
2021/07/30 05:51:01;;;;;;;35.25;12.35;;;;;;;27.00;52.88;96660.94;5004125;28;20281;-60
2021/07/30 05:53:28;;;;;;;28.85;12.50;;;;;;;27.15;51.87;96644.69;5004439;28;20604;-59
2021/07/30 05:55:55;;;;;;;23.77;12.10;;;;;;;27.52;51.67;96657.25;5002453;28;20050;-60
2021/07/30 05:58:21;;;;;;;27.45;11.95;;;;;;;27.58;49.90;96661.00;5004319;28;20080;-59
2021/07/30 06:00:48;;;;;;;25.65;11.30;;;;;;;27.65;49.33;96652.03;5004166;28;20144;-61
2021/07/30 06:03:15;;;;;;;25.48;11.27;;;;;;;27.82;48.63;96658.78;4992006;28;20050;-59
2021/07/30 06:05:42;;;;;;;23.08;12.35;;;;;;;28.05;48.63;96657.91;4987471;28;20459;-60
2021/07/30 06:08:09;;;;;;;26.35;12.95;;;;;;;28.23;49.17;96658.91;4995305;28;20057;-60
2021/07/30 06:10:37;;;;;;;28.48;11.90;;;;;;;28.33;48.32;96663.22;4991040;28;20504;-61
2021/07/30 06:13:03;;;;;;;26.02;11.27;;;;;;;28.24;48.55;96614.88;4990754;28;20049;-61
2021/07/30 06:15:30;;;;;;;25.70;12.05;;;;;;;28.43;46.53;96621.88;4994026;28;20064;-62
2021/07/30 06:17:57;;;;;;;29.95;11.90;;;;;;;28.20;47.42;96563.06;4991160;28;20153;-62
2021/07/30 06:20:24;;;;;;;26.40;13.98;;;;;;;29.01;46.83;96650.88;4994294;28;20056;-60
2021/07/30 06:22:51;;;;;;;31.73;14.07;;;;;;;29.03;45.77;96624.69;4987962;28;20135;-62
2021/07/30 06:25:18;;;;;;;31.67;13.57;;;;;;;29.47;45.64;96647.97;5002713;28;20068;-59
2021/07/30 06:27:45;;;;;;;24.20;15.38;;;;;;;29.35;44.72;96594.94;5003560;28;20527;-61
2021/07/30 06:30:12;;;;;;;31.52;14.90;;;;;;;30.03;44.27;96650.03;5003194;28;20050;-62
2021/07/30 06:32:39;;;;;;;30.20;16.13;;;;;;;30.35;43.19;96637.25;5001775;28;20054;-66
2021/07/30 06:35:08;;;;;;;31.83;16.92;;;;;;;30.45;43.04;96650.06;4990072;28;20046;-60
2021/07/30 06:37:36;;;;;;;32.05;16.33;;;;;;;30.58;42.18;96641.81;4992625;28;20054;-58
2021/07/30 06:40:04;;;;;;;25.30;14.38;;;;;;;30.72;44.21;96649.41;5002093;28;20052;-62
2021/07/30 06:42:32;;;;;;;31.70;17.58;;;;;;;30.36;43.54;96593.09;4997597;28;20058;-60
2021/07/30 06:45:01;;;;;;;38.75;20.38;;;;;;;30.62;43.17;96587.22;4997563;28;20517;-61
2021/07/30 06:47:32;;;;;;;22.58;13.90;;;;;;;31.12;41.14;96636.03;5001690;28;20049;-61
2021/07/30 06:49:58;;;;;;;25.88;15.45;;;;;;;31.26;40.30;96629.28;4992757;28;20056;-60
2021/07/30 06:52:25;;;;;;;37.72;18.35;;;;;;;31.30;39.33;96601.19;4997411;28;20168;-60
2021/07/30 06:54:55;;;;;;;27.45;16.67;;;;;;;31.61;38.27;96603.84;4988649;28;20052;-62
2021/07/30 06:57:21;;;;;;;33.22;18.00;;;;;;;31.92;36.63;96640.84;4986597;28;20452;-61
2021/07/30 06:59:49;;;;;;;24.23;14.05;;;;;;;31.48;36.66;96635.06;4988633;28;20571;-61
2021/07/30 07:02:16;;;;;;;29.10;14.25;;;;;;;30.91;39.19;96639.09;5001163;28;20069;-61
2021/07/30 07:04:43;;;;;;;24.13;12.35;;;;;;;31.16;39.54;96636.56;4991791;28;20531;-60
2021/07/30 07:07:10;;;;;;;33.85;16.25;;;;;;;31.22;39.92;96634.50;5001191;28;20427;-60
2021/07/30 07:09:37;;;;;;;30.88;13.07;;;;;;;30.75;40.26;96619.78;4994149;28;20138;-62
2021/07/30 07:12:04;;;;;;;29.40;14.80;;;;;;;31.37;39.19;96635.84;4991617;28;20078;-60
2021/07/30 07:14:33;;;;;;;46.17;16.52;;;;;;;31.28;39.33;96638.16;4994166;28;20105;-60
2021/07/30 07:16:59;;;;;;;28.38;12.15;;;;;;;31.73;37.95;96634.81;4993975;28;20429;-60
2021/07/30 07:19:26;;;;;;;28.83;13.00;;;;;;;32.04;37.09;96625.19;4989418;28;20050;-60
2021/07/30 07:21:58;;;;;;;36.42;14.70;;;;;;;32.05;36.71;96633.28;4982822;28;20501;-60
2021/07/30 07:24:24;;;;;;;34.83;13.50;;;;;;;32.33;36.25;96638.94;4993056;28;20054;-64
2021/07/30 07:26:51;;;;;;;27.23;11.45;;;;;;;32.40;35.30;96635.56;4992945;28;20053;-63
2021/07/30 07:29:18;;;;;;;29.10;12.85;;;;;;;32.57;35.26;96642.03;5001476;28;20050;-62
2021/07/30 07:31:46;;;;;;;20.60;11.98;;;;;;;32.56;35.16;96628.22;5003010;28;20050;-60
2021/07/30 07:34:12;;;;;;;21.40;11.35;;;;;;;32.99;34.27;96630.13;4999490;28;20508;-60
2021/07/30 07:36:39;;;;;;;19.77;10.82;;;;;;;33.23;33.99;96638.88;5002849;28;20076;-63
2021/07/30 07:39:06;;;;;;;20.70;11.25;;;;;;;33.50;34.31;96631.41;5001360;28;20053;-61
2021/07/30 07:41:33;;;;;;;33.67;15.02;;;;;;;33.38;34.82;96599.09;5001759;28;20058;-68
2021/07/30 07:44:00;;;;;;;22.27;11.95;;;;;;;33.67;34.33;96609.88;5010629;28;20053;-62
2021/07/30 07:46:26;;;;;;;19.42;12.23;;;;;;;33.13;35.26;96634.78;5022452;28;20103;-62
2021/07/30 07:48:53;;;;;;;28.35;13.27;;;;;;;32.42;35.90;96604.28;5001726;28;20057;-60
2021/07/30 07:51:20;;;;;;;26.70;14.40;;;;;;;32.76;35.53;96622.94;4987593;28;20054;-60
2021/07/30 07:53:47;;;;;;;30.30;13.82;;;;;;;32.95;35.25;96569.38;5000493;28;20072;-60
2021/07/30 07:56:13;;;;;;;27.30;13.10;;;;;;;33.50;34.24;96628.53;4990445;28;20060;-61
2021/07/30 07:58:40;;;;;;;23.63;13.43;;;;;;;33.55;34.09;96591.16;5005559;28;20527;-60
2021/07/30 08:01:06;;;;;;;48.13;34.80;;;;;;;33.80;34.01;96568.22;5003115;28;20064;-60
2021/07/30 08:03:33;;;;;;;24.83;13.52;;;;;;;34.34;32.93;96620.75;4986657;28;20058;-62
2021/07/30 08:06:00;;;;;;;24.08;11.45;;;;;;;33.74;32.13;96579.75;4986680;28;20073;-62
2021/07/30 08:08:27;;;;;;;26.60;11.55;;;;;;;33.83;32.81;96616.78;4985094;28;20050;-61
2021/07/30 08:10:54;;;;;;;25.42;11.60;;;;;;;34.22;32.04;96613.56;4990993;28;20053;-60
2021/07/30 08:13:22;;;;;;;25.42;11.55;;;;;;;33.73;31.59;96527.25;4990182;28;20144;-65
2021/07/30 08:15:49;;;;;;;21.52;11.43;;;;;;;34.30;32.47;96608.78;4984705;28;20054;-61
2021/07/30 08:18:16;;;;;;;22.60;11.02;;;;;;;34.77;31.39;96604.31;4986538;28;20413;-63
2021/07/30 08:20:43;;;;;;;22.88;11.13;;;;;;;33.57;31.04;96381.69;4984200;28;20054;-62
2021/07/30 08:23:09;;;;;;;19.13;12.05;;;;;;;34.74;31.69;96568.00;4991756;28;20072;-60
2021/07/30 08:25:36;;;;;;;21.67;11.23;;;;;;;34.95;30.56;96560.41;5003631;28;20058;-61
2021/07/30 08:28:03;;;;;;;23.50;10.75;;;;;;;35.05;30.73;96570.19;4986003;28;20076;-62
2021/07/30 08:30:30;;;;;;;23.73;11.10;;;;;;;35.38;30.75;96615.81;4984260;28;20054;-61
2021/07/30 08:32:58;;;;;;;25.38;12.15;;;;;;;35.51;30.06;96549.59;4997167;28;20056;-60
2021/07/30 08:35:24;;;;;;;23.15;10.57;;;;;;;35.50;30.67;96536.53;5004267;28;20058;-60
2021/07/30 08:37:51;;;;;;;21.63;10.32;;;;;;;35.70;30.75;96572.59;5005678;28;20080;-58
2021/07/30 08:40:18;;;;;;;23.65;10.85;;;;;;;35.86;30.22;96574.44;5002768;28;20440;-63
2021/07/30 08:42:46;;;;;;;31.52;11.88;;;;;;;34.84;31.20;96462.66;5000190;28;20049;-59
2021/07/30 08:45:13;;;;;;;26.35;11.27;;;;;;;36.00;31.08;96579.69;4994999;28;20046;-62
2021/07/30 08:47:40;;;;;;;27.48;12.40;;;;;;;36.10;30.91;96543.34;5004955;28;20054;-67
2021/07/30 08:50:07;;;;;;;22.48;10.65;;;;;;;35.81;30.36;96561.66;5007005;28;20053;-63
2021/07/30 08:52:40;;;;;;;23.48;12.63;;;;;;;35.39;31.20;96562.66;4991799;28;20584;-63
2021/07/30 08:55:08;;;;;;;18.45;10.13;;;;;;;35.37;31.95;96550.09;4986124;28;20062;-66
2021/07/30 08:57:40;;;;;;;24.95;11.25;;;;;;;35.79;31.54;96552.78;4989449;28;20134;-64
2021/07/30 09:00:14;;;;;;;22.67;10.57;;;;;;;36.07;30.83;96527.16;4984763;28;20058;-62
2021/07/30 09:02:41;;;;;;;23.80;10.88;;;;;;;36.07;30.63;96550.22;4984744;28;20052;-61
2021/07/30 09:05:32;;;;;;;17.60;9.82;;;;;;;36.17;29.61;96547.66;4999188;28;20063;-61
2021/07/30 09:08:01;;;;;;;21.58;12.43;;;;;;;35.93;29.71;96542.84;4984978;28;20057;-66
2021/07/30 09:10:34;;;;;;;22.63;11.50;;;;;;;36.03;29.55;96520.91;4986043;28;20108;-66
2021/07/30 09:13:25;;;;;;;26.80;10.77;;;;;;;36.23;28.96;96539.69;4988659;28;20050;-63
2021/07/30 09:16:09;;;;;;;25.33;10.63;;;;;;;36.25;29.39;96520.47;5023794;28;20045;-64
2021/07/30 09:18:37;;;;;;;25.08;11.63;;;;;;;36.55;29.51;96530.94;5024322;28;20052;-65
2021/07/30 09:21:22;;;;;;;22.70;11.32;;;;;;;36.81;29.40;96528.81;5022192;28;20057;-65
2021/07/30 09:24:20;;;;;;;19.73;9.77;;;;;;;36.97;28.81;96516.09;5022720;28;20144;-64
2021/07/30 09:26:50;;;;;;;22.75;9.68;;;;;;;37.11;27.69;96508.16;5019006;28;20060;-65
2021/07/30 09:29:24;;;;;;;30.17;11.55;;;;;;;37.27;28.10;96509.91;5024203;28;20145;-64
2021/07/30 09:32:02;;;;;;;21.38;9.25;;;;;;;37.52;27.80;96508.22;5024019;28;20085;-63
2021/07/30 09:34:39;;;;;;;22.00;11.02;;;;;;;36.88;28.06;96434.94;5023599;28;20430;-64
2021/07/30 09:37:26;;;;;;;25.92;10.77;;;;;;;37.75;27.23;96492.63;5023449;28;20053;-65
2021/07/30 09:39:53;;;;;;;22.25;10.75;;;;;;;37.94;27.48;96489.50;5023963;28;20054;-63
2021/07/30 09:42:29;;;;;;;31.77;10.60;;;;;;;37.49;27.38;96503.56;5023795;28;20131;-65
2021/07/30 09:45:08;;;;;;;19.42;11.00;;;;;;;37.04;27.64;96485.75;5023836;28;20057;-65
2021/07/30 09:47:55;;;;;;;20.85;12.65;;;;;;;37.49;27.81;96481.22;5024350;28;20655;-64
2021/07/30 09:50:22;;;;;;;25.98;10.85;;;;;;;37.52;26.91;96428.06;5022750;28;20045;-64
2021/07/30 09:52:51;;;;;;;20.58;9.88;;;;;;;37.71;26.85;96445.19;5022403;28;20060;-65
2021/07/30 09:55:21;;;;;;;16.40;10.18;;;;;;;37.80;26.59;96438.88;5024204;28;20053;-65
2021/07/30 09:57:51;;;;;;;21.33;10.43;;;;;;;37.49;26.92;96465.97;5010208;28;20308;-65
2021/07/30 10:00:19;;;;;;;23.13;11.32;;;;;;;37.38;27.43;96477.81;5002397;28;21897;-65
2021/07/30 10:02:46;;;;;;;24.83;12.85;;;;;;;37.83;26.89;96475.34;5004353;28;20053;-65
2021/07/30 10:05:15;;;;;;;23.40;11.73;;;;;;;38.23;26.52;96467.94;5003571;28;20058;-64
2021/07/30 10:07:42;;;;;;;25.38;11.05;;;;;;;37.79;26.42;96460.47;5003777;28;20072;-64
2021/07/30 10:10:15;;;;;;;21.77;10.60;;;;;;;37.85;27.09;96463.97;5003855;28;20056;-63
2021/07/30 10:12:52;;;;;;;26.20;11.40;;;;;;;38.56;26.28;96460.41;5001265;28;20053;-63
2021/07/30 10:15:19;;;;;;;26.27;11.02;;;;;;;38.85;26.07;96453.19;5002106;28;20062;-63
2021/07/30 10:17:47;;;;;;;21.05;11.00;;;;;;;38.88;25.33;96447.03;5004171;28;20464;-64
2021/07/30 10:20:16;;;;;;;25.48;10.68;;;;;;;38.65;26.35;96446.16;5003220;28;20583;-65
2021/07/30 10:23:04;;;;;;;26.55;13.20;;;;;;;38.75;24.94;96438.47;5003737;28;20050;-64
2021/07/30 10:25:39;;;;;;;22.13;11.05;;;;;;;38.14;26.14;96416.38;5003613;28;20050;-65
2021/07/30 10:28:25;;;;;;;24.63;10.82;;;;;;;38.67;26.43;96437.69;5003558;28;20080;-64
2021/07/30 10:30:54;;;;;;;25.27;12.35;;;;;;;37.24;26.28;96222.84;5001904;28;20133;-63
2021/07/30 10:33:30;;;;;;;26.33;12.23;;;;;;;38.51;26.08;96432.38;5003802;28;20076;-64
2021/07/30 10:35:58;;;;;;;23.15;12.73;;;;;;;38.20;26.96;96428.56;5003584;28;20500;-67
2021/07/30 10:38:25;;;;;;;23.33;11.60;;;;;;;38.55;26.02;96413.28;5002388;28;20054;-64
2021/07/30 10:40:57;;;;;;;34.28;18.48;;;;;;;38.32;26.33;96423.97;5003369;28;20426;-63
2021/07/30 10:43:33;;;;;;;21.55;11.20;;;;;;;38.20;26.00;96414.09;5003593;28;20057;-64
2021/07/30 10:46:08;;;;;;;31.55;12.15;;;;;;;38.11;26.12;96414.59;5003617;28;20050;-64
2021/07/30 10:48:42;;;;;;;26.98;11.15;;;;;;;37.98;26.02;96411.81;5003997;28;20061;-65
2021/07/30 10:51:18;;;;;;;31.63;10.60;;;;;;;38.05;25.60;96411.06;5003500;28;20089;-64
2021/07/30 10:53:58;;;;;;;21.90;11.40;;;;;;;38.00;26.34;96409.13;5003036;28;20046;-65
2021/07/30 10:56:28;;;;;;;24.52;10.60;;;;;;;37.86;26.07;96411.34;5002220;28;20049;-63
2021/07/30 10:58:56;;;;;;;18.52;8.50;;;;;;;37.95;26.09;96412.97;4984271;28;20066;-63
2021/07/30 11:01:43;;;;;;;21.10;9.25;;;;;;;37.65;26.60;96412.72;4983256;28;20418;-61
2021/07/30 11:04:11;;;;;;;23.25;10.25;;;;;;;38.39;26.96;96411.66;4990506;28;20050;-61
2021/07/30 11:06:41;;;;;;;26.00;13.88;;;;;;;39.03;25.78;96399.97;5001121;28;20050;-61
2021/07/30 11:09:08;;;;;;;28.42;13.85;;;;;;;39.44;25.32;96399.63;4996191;28;20053;-62
2021/07/30 11:11:40;;;;;;;25.95;14.20;;;;;;;39.67;25.36;96396.69;4992124;28;20062;-62
2021/07/30 11:14:12;;;;;;;21.60;11.15;;;;;;;39.39;25.27;96391.06;4985916;28;20055;-67
2021/07/30 11:16:43;;;;;;;19.13;11.13;;;;;;;38.46;26.47;96392.78;4990056;28;20054;-62
2021/07/30 11:19:12;;;;;;;29.60;16.98;;;;;;;39.25;25.95;96376.75;4989050;28;20073;-59
2021/07/30 11:21:39;;;;;;;27.80;16.67;;;;;;;39.12;25.80;96382.78;4983389;28;20058;-64
2021/07/30 11:24:06;;;;;;;30.60;16.73;;;;;;;39.77;25.64;96357.03;5002594;28;20511;-60
2021/07/30 11:26:37;;;;;;;23.83;13.95;;;;;;;40.10;25.59;96376.13;4995984;28;20061;-62